createdAt,value
2018-01-21T00:02:37.531Z,94058.22
2018-01-21T00:17:38.204Z,94054.34
2018-01-21T00:32:37.075Z,94054.40
2018-01-21T00:47:36.897Z,94057.77
2018-01-21T01:02:37.295Z,94048.03
2018-01-21T01:17:35.310Z,94039.23
2018-01-21T01:32:35.186Z,94045.11
2018-01-21T01:47:35.645Z,94044.38
2018-01-21T02:02:34.582Z,94054.80
2018-01-21T02:17:33.893Z,94056.95
2018-01-21T02:32:35.333Z,94065.98
2018-01-21T02:47:35.463Z,94057.03
2018-01-21T03:17:35.540Z,94044.55
2018-01-21T03:32:37.694Z,94028.66
2018-01-21T03:47:34.659Z,93990.39
2018-01-21T04:02:38.875Z,93967.33
2018-01-21T04:17:37.191Z,93883.98
2018-01-21T04:32:36.450Z,93897.03
2018-01-21T04:47:36.401Z,93881.55
2018-01-21T05:02:35.572Z,93913.81
2018-01-21T05:32:36.055Z,93896.39
2018-01-21T05:47:35.939Z,93881.68
2018-01-21T06:02:35.369Z,93873.44
2018-01-21T06:17:35.316Z,93858.16
2018-01-21T06:32:35.341Z,93880.69
2018-01-21T06:47:34.791Z,93892.83
2018-01-21T07:02:34.601Z,93926.75
2018-01-21T07:17:34.470Z,93917.70
2018-01-21T07:32:34.513Z,93908.94
2018-01-21T07:47:33.948Z,93918.26
2018-01-21T08:02:34.835Z,93887.27
2018-01-21T08:17:34.971Z,93852.09
2018-01-21T08:32:34.753Z,93852.84
2018-01-21T08:47:35.091Z,93841.06
2018-01-21T09:02:35.448Z,93839.62
2018-01-21T09:17:36.988Z,93831.53
2018-01-21T09:32:34.919Z,93806.69
2018-01-21T09:47:34.859Z,93753.08
2018-01-21T10:02:35.262Z,93738.08
2018-01-21T10:17:35.227Z,93689.66
2018-01-21T10:32:35.179Z,93659.94
2018-01-21T10:47:35.041Z,93607.89
2018-01-21T11:02:36.510Z,93593.67
2018-01-21T11:17:34.389Z,93595.41
2018-01-21T11:32:33.959Z,93555.70
2018-01-21T11:47:33.940Z,93546.94
2018-01-21T12:02:34.677Z,93545.35
2018-01-21T12:17:35.171Z,93513.88
2018-01-21T12:32:34.659Z,93486.52
2018-01-21T12:47:34.713Z,93482.81
2018-01-21T13:02:34.955Z,93475.44
2018-01-21T13:17:34.938Z,93456.65
2018-01-21T13:32:34.809Z,93444.29
2018-01-21T13:47:34.823Z,93426.53
2018-01-21T14:02:35.253Z,93422.88
2018-01-21T14:17:40.002Z,93411.47
2018-01-21T14:32:36.539Z,93410.61
2018-01-21T14:47:36.053Z,93393.13
2018-01-21T15:02:35.055Z,93362.58
2018-01-21T15:17:36.358Z,93348.69
2018-01-21T15:32:45.271Z,93357.91
2018-01-21T15:47:37.800Z,93338.78
2018-01-21T16:02:39.421Z,93332.94
2018-01-21T16:47:36.992Z,93260.45
2018-01-21T17:02:46.875Z,93261.11
2018-01-21T17:17:36.940Z,93254.49
2018-01-21T17:32:35.767Z,93261.11
2018-01-21T18:02:36.458Z,93235.45
2018-01-21T18:32:37.538Z,93231.27
2018-01-21T18:47:37.367Z,93241.48
2018-01-21T19:17:35.434Z,93237.09
2018-01-21T19:32:35.400Z,93227.63
2018-01-21T19:47:39.877Z,93227.22
2018-01-21T20:02:37.008Z,93221.27
2018-01-21T20:17:35.350Z,93227.61
2018-01-21T20:32:34.736Z,93233.83
2018-01-21T20:47:49.003Z,93267.03
2018-01-21T21:02:37.662Z,93284.13
2018-01-21T21:32:36.648Z,93297.47
2018-01-21T21:47:51.184Z,93324.08
2018-01-21T22:02:42.138Z,93341.00
2018-01-21T22:17:37.675Z,93362.75
2018-01-21T22:32:38.141Z,93390.29
2018-01-21T22:47:37.144Z,93390.46
2018-01-21T23:02:37.337Z,93394.85
2018-01-21T23:17:37.869Z,93405.55
2018-01-21T23:32:34.385Z,93406.41
2018-01-21T23:47:34.421Z,93440.91
